Verhnij Baskuncak, Russia
Current Conditions -  °F | °C
As of 7:00 PM on Sunday 25 Jan 2015 (Local Time) from URWW Reporting Station
Blowing Snow Blowing Snow  
Wind Chill: -12°   Ceiling: Unl
Heat Index:   Visibility: 6mi
Dew Point:   Wind: 22mph
Humidity: 79%   Direction: 90°E
Pressure: 30.56"   Gusts: NA
Location:  48.22°N, 46.73°E
Report Text: URWW 251600Z 09010MPS 9999 DRSN SCT300 M13/M16 Q1035 NOSIG RMK11720360
Loading
Personal Weather Stations






























Interactive Weather Map New forecast layout! Learn more

10-Day Weather Forecast

Advertisements
Track Severe Weather on mobile